»·PEaware :: N762BB KSNA-KBUR

N762BB :: KSNA-KBUR

FLIGHT INFORMATION

Flight Status: Arrived
Operator: Privately registered:
United States
More flights under this callsign
Pilot: Slade E. (12022)
Aircraft: BEECH AIRCRAFT A90-E90 KING AIR
(BE9L)
More flights by this aircraft type
Origin: KSNA John Wayne-Orange Co
United States
Destination: KBUR Bob Hope-Burbank
United States
More flights between these airports :: More routes between these airports
Route: SLI V23 LAX LAX316 SILEX
File this flight plan on PilotEdge
Remarks: CSTP1
Altitude:
(Current/Filed)
4,000ft
Speed:
(Current/Filed)
210kts
Departed: 24-Oct-20 09:49 AM
Arrived: 24-Oct-20 10:22 AM
Distance/Time
Traveled:
40nm/0:32
Distance/Time
To Go:
Arrived

Flight Plot

Page will automatically refresh every two minutes.


Map Options




Map Legend


Flown Route
Filed Route
Departure Airport
Arrival Airport
Navaid (VOR, NDB)
Fix

Horizontal Profiles

Position Reports

Time Latitude Longitude Heading Altitude Ground
Speed
24-Oct-20 09:32 33.671276 -117.867806 22 59ft 0kts
24-Oct-20 09:33 33.671276 -117.867806 22 59ft 0kts
24-Oct-20 09:34 33.671276 -117.867806 22 59ft 0kts
24-Oct-20 09:35 33.671276 -117.867806 22 59ft 0kts
24-Oct-20 09:36 33.671276 -117.867806 22 59ft 0kts
24-Oct-20 09:37 33.671276 -117.867806 22 59ft 0kts
24-Oct-20 09:38 33.671276 -117.867806 22 59ft 0kts
24-Oct-20 09:39 33.671276 -117.867806 22 59ft 0kts
24-Oct-20 09:40 33.671276 -117.867806 22 59ft 0kts
24-Oct-20 09:41 33.671276 -117.867806 22 59ft 0kts
24-Oct-20 09:42 33.671276 -117.867806 22 59ft 0kts
24-Oct-20 09:43 33.671276 -117.867806 22 59ft 0kts
24-Oct-20 09:44 33.671464 -117.867753 357 59ft 5kts
24-Oct-20 09:45 33.674110 -117.866466 29 59ft 12kts
24-Oct-20 09:46 33.677413 -117.864364 28 59ft 18kts
24-Oct-20 09:48 33.680289 -117.864348 298 59ft 14kts
24-Oct-20 09:49 33.677857 -117.867463 207 60ft 80kts
24-Oct-20 09:50 33.650921 -117.890472 231 995ft 137kts
24-Oct-20 09:51 33.625853 -117.929214 236 2094ft 162kts
24-Oct-20 09:52 33.605060 -117.979282 277 2815ft 182kts
24-Oct-20 09:53 33.632721 -118.021218 321 3525ft 184kts
24-Oct-20 09:54 33.663874 -118.056733 311 4533ft 168kts
24-Oct-20 09:55 33.691785 -118.097793 310 5424ft 165kts
24-Oct-20 09:56 33.723722 -118.142543 310 6011ft 178kts
24-Oct-20 09:57 33.755809 -118.186954 310 6009ft 191kts
24-Oct-20 09:58 33.791272 -118.235854 310 6007ft 195kts
24-Oct-20 09:59 33.826583 -118.284563 310 6007ft 197kts
24-Oct-20 10:00 33.858106 -118.328102 310 6006ft 197kts
24-Oct-20 10:01 33.889876 -118.372030 310 6006ft 197kts
24-Oct-20 10:01 33.916161 -118.408421 310 6006ft 197kts
24-Oct-20 10:03 33.966699 -118.454326 330 6006ft 198kts
24-Oct-20 10:04 34.020093 -118.490107 328 6007ft 202kts
24-Oct-20 10:05 34.066222 -118.521033 328 6007ft 203kts
24-Oct-20 10:06 34.111096 -118.551134 328 6006ft 203kts
24-Oct-20 10:06 34.152682 -118.579047 328 6000ft 179kts
24-Oct-20 10:08 34.195740 -118.600666 20 6010ft 169kts
24-Oct-20 10:08 34.203595 -118.565561 101 6009ft 164kts
24-Oct-20 10:09 34.201107 -118.508805 92 5993ft 132kts
24-Oct-20 10:10 34.200940 -118.467194 92 6019ft 134kts
24-Oct-20 10:11 34.200795 -118.418921 91 6012ft 162kts
24-Oct-20 10:12 34.174560 -118.400823 234 5571ft 176kts
24-Oct-20 10:13 34.170903 -118.462378 269 4624ft 194kts
24-Oct-20 10:14 34.171132 -118.524547 269 3999ft 184kts
24-Oct-20 10:15 34.194445 -118.555872 29 3725ft 170kts
24-Oct-20 10:16 34.202188 -118.516312 92 3019ft 127kts
24-Oct-20 10:17 34.201296 -118.484860 95 2562ft 115kts
24-Oct-20 10:18 34.199598 -118.453758 93 2229ft 112kts
24-Oct-20 10:19 34.198523 -118.415165 91 1559ft 106kts
24-Oct-20 10:20 34.198154 -118.378672 92 945ft 101kts
24-Oct-20 10:21 34.197948 -118.360501 40 733ft 17kts
24-Oct-20 10:22 34.198884 -118.359283 90 733ft 13kts
24-Oct-20 10:23 34.199983 -118.359402 339 733ft 0kts
24-Oct-20 10:24 34.199987 -118.359404 334 733ft 0kts
24-Oct-20 10:25 34.199987 -118.359404 334 733ft 0kts
24-Oct-20 10:26 34.199987 -118.359404 334 733ft 0kts
24-Oct-20 10:27 34.199987 -118.359404 334 733ft 0kts
24-Oct-20 10:28 34.199987 -118.359404 334 733ft 0kts
24-Oct-20 10:29 34.199987 -118.359404 334 733ft 0kts
24-Oct-20 10:30 34.199987 -118.359404 334 733ft 0kts
24-Oct-20 10:31 34.199987 -118.359404 334 733ft 0kts
24-Oct-20 10:32 34.199987 -118.359404 334 733ft 0kts
24-Oct-20 10:33 34.199987 -118.359404 334 733ft 0kts
24-Oct-20 10:34 34.199987 -118.359404 334 733ft 0kts
24-Oct-20 10:35 34.199987 -118.359404 334 733ft 0kts

Navigation Log

Ident Type
Flight plan parsing failed, navigation log unavailable